createdAt,value
2017-02-14T00:00:55.246Z,-3.78
2017-02-14T00:02:05.953Z,-3.74
2017-02-14T00:03:16.269Z,-3.74
2017-02-14T00:04:26.974Z,-3.69
2017-02-14T00:05:37.679Z,-3.65
2017-02-14T00:06:48.401Z,-3.65
2017-02-14T00:07:59.111Z,-3.61
2017-02-14T00:09:09.046Z,-3.61
2017-02-14T00:10:18.964Z,-3.56
2017-02-14T00:11:29.661Z,-3.59
2017-02-14T00:12:40.361Z,-3.53
2017-02-14T00:13:51.080Z,-3.51
2017-02-14T00:15:01.782Z,-3.43
2017-02-14T00:16:12.095Z,-3.46
2017-02-14T00:17:22.803Z,-3.47
2017-02-14T00:18:33.517Z,-3.44
2017-02-14T00:19:44.229Z,-3.58
2017-02-14T00:20:54.930Z,-3.58
2017-02-14T00:22:05.630Z,-3.64
2017-02-14T00:23:15.918Z,-3.58
2017-02-14T00:24:26.214Z,-3.58
2017-02-14T00:25:36.909Z,-3.53
2017-02-14T00:26:47.609Z,-3.47
2017-02-14T00:27:57.944Z,-3.48
2017-02-14T00:29:08.644Z,-3.5
2017-02-14T00:30:18.943Z,-3.47
2017-02-14T00:31:29.644Z,-3.48
2017-02-14T00:32:40.371Z,-3.56
2017-02-14T00:33:51.111Z,-3.55
2017-02-14T00:35:01.807Z,-3.47
2017-02-14T00:36:12.100Z,-3.47
2017-02-14T00:37:22.029Z,-3.48
2017-02-14T00:38:32.735Z,-3.56
2017-02-14T00:39:43.466Z,-3.46
2017-02-14T00:40:54.166Z,-3.48
2017-02-14T00:42:04.859Z,-3.38
2017-02-14T00:43:14.756Z,-3.41
2017-02-14T00:44:24.669Z,-3.37
2017-02-14T00:45:35.385Z,-3.4
2017-02-14T00:46:46.093Z,-3.38
2017-02-14T00:47:56.784Z,-3.37
2017-02-14T00:49:07.090Z,-3.5
2017-02-14T00:50:16.989Z,-3.38
2017-02-14T00:51:27.332Z,-3.41
2017-02-14T00:52:38.047Z,-3.32
2017-02-14T00:53:48.754Z,-3.32
2017-02-14T00:54:59.454Z,-3.37
2017-02-14T00:56:09.789Z,-3.32
2017-02-14T00:57:20.498Z,-3.32
2017-02-14T00:58:31.192Z,-3.26
2017-02-14T00:59:41.903Z,-3.33
2017-02-14T01:00:52.608Z,-3.36
2017-02-14T01:02:03.321Z,-3.36
2017-02-14T01:03:13.649Z,-3.4
2017-02-14T01:04:24.389Z,-3.37
2017-02-14T01:05:35.081Z,-3.4
2017-02-14T01:06:45.780Z,-3.36
2017-02-14T01:07:56.498Z,-3.4
2017-02-14T01:09:07.203Z,-3.4
2017-02-14T01:10:17.512Z,-3.33
2017-02-14T01:11:28.212Z,-3.4
2017-02-14T01:12:38.929Z,-3.4
2017-02-14T01:13:48.843Z,-3.4
2017-02-14T01:14:59.544Z,-3.41
2017-02-14T01:16:10.286Z,-3.38
2017-02-14T01:17:21.001Z,-3.36
2017-02-14T01:18:31.692Z,-3.37
2017-02-14T01:19:42.374Z,-3.5
2017-02-14T01:20:53.060Z,-3.43
2017-02-14T01:22:03.761Z,-3.47
2017-02-14T01:23:14.065Z,-3.51
2017-02-14T01:24:24.394Z,-3.5
2017-02-14T01:25:35.092Z,-3.58
2017-02-14T01:26:45.793Z,-3.64
2017-02-14T01:27:56.508Z,-3.71
2017-02-14T01:29:07.242Z,-3.71
2017-02-14T01:30:17.155Z,-3.66
2017-02-14T01:31:27.850Z,-3.75
2017-02-14T01:32:38.535Z,-3.69
2017-02-14T01:33:49.252Z,-3.8
2017-02-14T01:34:59.945Z,-3.78
2017-02-14T01:36:10.671Z,-3.71
2017-02-14T01:37:20.975Z,-3.74
2017-02-14T01:38:31.670Z,-3.8
2017-02-14T01:39:42.380Z,-3.8
2017-02-14T01:40:53.119Z,-3.84
2017-02-14T01:42:03.820Z,-3.85
2017-02-14T01:43:14.520Z,-3.81
2017-02-14T01:44:25.208Z,-3.85
2017-02-14T01:45:35.923Z,-3.8
2017-02-14T01:46:46.625Z,-3.94
2017-02-14T01:47:57.316Z,-3.88
2017-02-14T01:49:07.613Z,-3.95
2017-02-14T01:50:17.915Z,-4.04
2017-02-14T01:51:27.845Z,-4.06
2017-02-14T01:52:38.546Z,-4.16
2017-02-14T01:53:49.239Z,-4.2
2017-02-14T01:54:59.939Z,-4.27
2017-02-14T01:56:10.256Z,-4.27
2017-02-14T01:57:19.782Z,-4.41
2017-02-14T01:58:30.108Z,-4.42
2017-02-14T01:59:40.810Z,-4.42
2017-02-14T02:00:51.524Z,-4.45
2017-02-14T02:02:02.222Z,-4.51
2017-02-14T02:03:12.522Z,-4.51
2017-02-14T02:04:22.850Z,-4.52
2017-02-14T02:05:33.538Z,-4.58
2017-02-14T02:06:44.244Z,-4.53
2017-02-14T02:07:54.949Z,-4.52
2017-02-14T02:09:05.639Z,-4.55
2017-02-14T02:10:16.336Z,-4.61
2017-02-14T02:11:27.046Z,-4.65
2017-02-14T02:12:37.351Z,-4.62
2017-02-14T02:13:48.052Z,-4.77
2017-02-14T02:14:58.775Z,-4.59
2017-02-14T02:16:09.076Z,-4.58
2017-02-14T02:17:19.381Z,-4.67
2017-02-14T02:18:30.089Z,-4.62
2017-02-14T02:19:40.787Z,-4.58
2017-02-14T02:20:51.496Z,-4.52
2017-02-14T02:22:02.192Z,-4.59
2017-02-14T02:23:12.881Z,-4.45
2017-02-14T02:24:23.582Z,-4.47
2017-02-14T02:25:34.279Z,-4.51
2017-02-14T02:26:44.965Z,-4.44
2017-02-14T02:27:55.666Z,-4.51
2017-02-14T02:29:06.367Z,-4.47
2017-02-14T02:30:16.305Z,-4.42
2017-02-14T02:31:27.016Z,-4.4
2017-02-14T02:32:37.702Z,-4.4
2017-02-14T02:33:48.413Z,-4.38
2017-02-14T02:34:59.116Z,-4.4
2017-02-14T02:36:09.452Z,-4.38
2017-02-14T02:37:20.193Z,-4.31
2017-02-14T02:38:30.885Z,-4.24
2017-02-14T02:39:41.603Z,-4.23
2017-02-14T02:40:52.304Z,-4.12
2017-02-14T02:42:03.020Z,-4.14
2017-02-14T02:43:13.313Z,-4.19
2017-02-14T02:44:24.009Z,-4.12
2017-02-14T02:45:34.702Z,-4.09
2017-02-14T02:46:45.419Z,-4.12
2017-02-14T02:47:56.120Z,-4.2
2017-02-14T02:49:06.819Z,-4.12
2017-02-14T02:50:17.512Z,-4.17
2017-02-14T02:51:28.208Z,-4.2
2017-02-14T02:52:38.908Z,-4.14
2017-02-14T02:53:49.628Z,-4.17
2017-02-14T02:55:00.331Z,-4.24
2017-02-14T02:56:11.018Z,-4.2
2017-02-14T02:57:21.346Z,-4.26
2017-02-14T02:58:31.642Z,-4.22
2017-02-14T02:59:42.438Z,-4.34
2017-02-14T03:00:53.144Z,-4.45
2017-02-14T03:02:03.854Z,-4.4
2017-02-14T03:03:14.547Z,-4.42
2017-02-14T03:04:24.862Z,-4.49
2017-02-14T03:05:35.708Z,-4.52
2017-02-14T03:06:46.403Z,-4.59
2017-02-14T03:07:57.100Z,-4.53
2017-02-14T03:09:07.821Z,-4.67
2017-02-14T03:10:17.721Z,-4.63
2017-02-14T03:11:28.038Z,-4.7
2017-02-14T03:12:38.733Z,-4.65
2017-02-14T03:13:49.433Z,-4.69
2017-02-14T03:15:00.138Z,-4.77
2017-02-14T03:16:10.439Z,-4.77
2017-02-14T03:17:21.137Z,-4.81
2017-02-14T03:18:31.845Z,-4.76
2017-02-14T03:19:42.543Z,-4.83
2017-02-14T03:20:53.249Z,-4.88
2017-02-14T03:22:03.942Z,-4.88
2017-02-14T03:23:13.445Z,-4.81
2017-02-14T03:24:24.153Z,-4.87
2017-02-14T03:25:34.851Z,-4.81
2017-02-14T03:26:45.163Z,-4.92
2017-02-14T03:27:55.855Z,-4.92
2017-02-14T03:29:06.560Z,-4.91
2017-02-14T03:30:17.267Z,-4.94
2017-02-14T03:31:27.202Z,-4.94
2017-02-14T03:32:37.935Z,-4.84
2017-02-14T03:33:48.636Z,-4.87
2017-02-14T03:34:59.343Z,-4.76
2017-02-14T03:36:10.038Z,-4.79
2017-02-14T03:37:20.752Z,-4.74
2017-02-14T03:38:31.472Z,-4.67
2017-02-14T03:39:42.179Z,-4.62
2017-02-14T03:40:52.875Z,-4.67
2017-02-14T03:42:03.586Z,-4.67
2017-02-14T03:43:14.283Z,-4.73
2017-02-14T03:44:24.575Z,-4.77
2017-02-14T03:45:34.865Z,-4.69
2017-02-14T03:46:45.546Z,-4.71
2017-02-14T03:47:56.260Z,-4.74
2017-02-14T03:49:06.975Z,-4.74
2017-02-14T03:50:17.683Z,-4.83
2017-02-14T03:51:28.377Z,-4.84
2017-02-14T03:52:39.100Z,-4.81
2017-02-14T03:53:49.813Z,-4.8
2017-02-14T03:55:00.506Z,-4.92
2017-02-14T03:56:10.441Z,-4.83
2017-02-14T03:57:21.135Z,-4.91
2017-02-14T03:58:31.464Z,-4.84
2017-02-14T03:59:42.184Z,-4.81
2017-02-14T04:00:52.870Z,-4.87
2017-02-14T04:02:03.568Z,-4.81
2017-02-14T04:03:13.914Z,-4.76
2017-02-14T04:04:23.828Z,-4.79
2017-02-14T04:05:34.516Z,-4.77
2017-02-14T04:06:45.245Z,-4.74
2017-02-14T04:07:55.533Z,-4.73
2017-02-14T04:09:06.241Z,-4.58
2017-02-14T04:10:16.939Z,-4.53
2017-02-14T04:11:27.621Z,-4.56
2017-02-14T04:12:38.324Z,-4.58
2017-02-14T04:13:49.023Z,-4.53
2017-02-14T04:14:59.729Z,-4.55
2017-02-14T04:16:10.025Z,-4.49
2017-02-14T04:17:20.326Z,-4.41
2017-02-14T04:18:31.019Z,-4.42
2017-02-14T04:19:41.711Z,-4.44
2017-02-14T04:20:52.421Z,-4.45
2017-02-14T04:22:03.131Z,-4.51
2017-02-14T04:23:13.831Z,-4.59
2017-02-14T04:24:24.534Z,-4.56
2017-02-14T04:25:35.245Z,-4.55
2017-02-14T04:26:45.951Z,-4.62
2017-02-14T04:27:56.655Z,-4.76
2017-02-14T04:29:07.363Z,-4.74
2017-02-14T04:30:18.077Z,-4.79
2017-02-14T04:31:28.775Z,-4.81
2017-02-14T04:32:39.484Z,-4.8
2017-02-14T04:33:50.197Z,-4.81
2017-02-14T04:35:00.525Z,-4.91
2017-02-14T04:36:10.416Z,-4.84
2017-02-14T04:37:21.113Z,-4.9
2017-02-14T04:38:31.834Z,-4.9
2017-02-14T04:39:42.540Z,-4.97
2017-02-14T04:40:52.848Z,-5
2017-02-14T04:42:03.542Z,-5
2017-02-14T04:43:13.852Z,-5
2017-02-14T04:44:24.535Z,-5.08
2017-02-14T04:45:35.232Z,-5.01
2017-02-14T04:46:45.929Z,-5.16
2017-02-14T04:47:56.647Z,-5.06
2017-02-14T04:49:07.353Z,-5.1
2017-02-14T04:50:18.062Z,-5.09
2017-02-14T04:51:28.750Z,-5.19
2017-02-14T04:52:38.654Z,-5.12
2017-02-14T04:53:49.353Z,-5.17
2017-02-14T04:55:00.061Z,-5.12
2017-02-14T04:56:10.772Z,-5.12
2017-02-14T04:57:21.502Z,-5.05
2017-02-14T04:58:31.806Z,-4.97
2017-02-14T04:59:42.095Z,-4.94
2017-02-14T05:00:52.795Z,-4.87
2017-02-14T05:02:03.509Z,-4.88
2017-02-14T05:03:13.815Z,-4.83
2017-02-14T05:04:24.516Z,-4.83
2017-02-14T05:05:35.229Z,-4.8
2017-02-14T05:06:45.963Z,-4.77
2017-02-14T05:07:56.644Z,-4.8
2017-02-14T05:09:07.387Z,-4.67
2017-02-14T05:10:17.681Z,-4.77
2017-02-14T05:11:28.412Z,-4.67
2017-02-14T05:12:38.336Z,-4.55
2017-02-14T05:13:49.046Z,-4.56
2017-02-14T05:14:59.758Z,-4.61
2017-02-14T05:16:10.467Z,-4.41
2017-02-14T05:17:21.169Z,-4.42
2017-02-14T05:18:31.861Z,-4.44
2017-02-14T05:19:42.570Z,-4.45
2017-02-14T05:20:53.285Z,-4.41
2017-02-14T05:22:03.987Z,-4.38
2017-02-14T05:23:14.288Z,-4.3
2017-02-14T05:24:24.628Z,-4.41
2017-02-14T05:25:35.323Z,-4.31
2017-02-14T05:26:46.017Z,-4.31
2017-02-14T05:27:56.727Z,-4.33
2017-02-14T05:29:07.432Z,-4.27
2017-02-14T05:30:18.130Z,-4.27
2017-02-14T05:31:28.827Z,-4.24
2017-02-14T05:32:39.132Z,-4.26
2017-02-14T05:33:49.416Z,-4.2
2017-02-14T05:35:00.162Z,-4.26
2017-02-14T05:36:10.456Z,-4.22
2017-02-14T05:37:20.751Z,-4.17
2017-02-14T05:38:31.079Z,-4.19
2017-02-14T05:39:41.781Z,-4.17
2017-02-14T05:40:52.092Z,-4.19
2017-02-14T05:42:02.796Z,-4.16
2017-02-14T05:43:13.512Z,-4.24
2017-02-14T05:44:24.232Z,-4.17
2017-02-14T05:45:34.956Z,-4.19
2017-02-14T05:46:45.660Z,-4.19
2017-02-14T05:47:56.370Z,-4.23
2017-02-14T05:49:07.079Z,-4.19
2017-02-14T05:50:17.780Z,-4.17
2017-02-14T05:51:28.472Z,-4.24
2017-02-14T05:52:39.192Z,-4.17
2017-02-14T05:53:49.895Z,-4.23
2017-02-14T05:55:00.604Z,-4.34
2017-02-14T05:56:11.299Z,-4.31
2017-02-14T05:57:22.006Z,-4.4
2017-02-14T05:58:32.703Z,-4.41
2017-02-14T05:59:43.398Z,-4.49
2017-02-14T06:00:54.110Z,-4.59
2017-02-14T06:02:04.817Z,-4.58
2017-02-14T06:03:15.107Z,-4.59
2017-02-14T06:04:25.799Z,-4.62
2017-02-14T06:05:36.498Z,-4.73
2017-02-14T06:06:47.181Z,-4.73
2017-02-14T06:07:57.871Z,-4.77
2017-02-14T06:09:08.571Z,-4.8
2017-02-14T06:10:19.271Z,-4.83
2017-02-14T06:11:29.954Z,-4.84
2017-02-14T06:12:40.672Z,-4.91
2017-02-14T06:13:51.357Z,-4.91
2017-02-14T06:15:02.071Z,-4.98
2017-02-14T06:16:12.755Z,-4.94
2017-02-14T06:17:23.091Z,-4.92
2017-02-14T06:18:33.791Z,-4.97
2017-02-14T06:19:44.093Z,-5
2017-02-14T06:20:54.799Z,-5.05
2017-02-14T06:22:05.490Z,-5.1
2017-02-14T06:23:15.806Z,-5.01
2017-02-14T06:24:26.504Z,-5.13
2017-02-14T06:25:37.205Z,-5.23
2017-02-14T06:26:47.505Z,-5.09
2017-02-14T06:27:58.208Z,-5.12
2017-02-14T06:29:08.911Z,-5.21
2017-02-14T06:30:19.611Z,-5.19
2017-02-14T06:31:30.306Z,-5.21
2017-02-14T06:32:41.035Z,-5.17
2017-02-14T06:33:51.736Z,-5.2
2017-02-14T06:35:02.448Z,-5.27
2017-02-14T06:36:12.748Z,-5.3
2017-02-14T06:37:23.065Z,-5.28
2017-02-14T06:38:33.377Z,-5.3
2017-02-14T06:39:44.099Z,-5.25
2017-02-14T06:40:54.785Z,-5.34
2017-02-14T06:42:05.108Z,-5.31
2017-02-14T06:43:15.804Z,-5.41
2017-02-14T06:44:26.556Z,-5.45
2017-02-14T06:45:37.240Z,-5.38
2017-02-14T06:46:47.935Z,-5.37
2017-02-14T06:47:58.649Z,-5.38
2017-02-14T06:49:09.345Z,-5.45
2017-02-14T06:50:20.106Z,-5.35
2017-02-14T06:51:30.401Z,-5.39
2017-02-14T06:52:41.094Z,-5.45
2017-02-14T06:53:51.794Z,-5.43
2017-02-14T06:55:02.483Z,-5.37
2017-02-14T06:56:13.177Z,-5.39
2017-02-14T06:57:23.496Z,-5.43
2017-02-14T06:58:34.193Z,-5.45
2017-02-14T06:59:44.928Z,-5.45
2017-02-14T07:00:55.650Z,-5.41
2017-02-14T07:02:06.346Z,-5.38
2017-02-14T07:03:16.263Z,-5.32
2017-02-14T07:04:26.966Z,-5.34
2017-02-14T07:05:37.667Z,-5.3
2017-02-14T07:06:47.966Z,-5.27
2017-02-14T07:07:58.673Z,-5.25
2017-02-14T07:09:09.390Z,-5.2
2017-02-14T07:10:20.093Z,-5.2
2017-02-14T07:11:30.771Z,-5.21
2017-02-14T07:12:41.479Z,-5.27
2017-02-14T07:13:52.161Z,-5.28
2017-02-14T07:15:02.871Z,-5.3
2017-02-14T07:16:13.173Z,-5.28
2017-02-14T07:17:23.867Z,-5.23
2017-02-14T07:18:34.167Z,-5.28
2017-02-14T07:19:44.854Z,-5.19
2017-02-14T07:20:55.550Z,-5.2
2017-02-14T07:22:06.256Z,-5.2
2017-02-14T07:23:16.955Z,-5.12
2017-02-14T07:24:27.666Z,-5.12
2017-02-14T07:25:38.365Z,-5.13
2017-02-14T07:26:49.092Z,-5.16
2017-02-14T07:27:59.799Z,-5.17
2017-02-14T07:29:10.101Z,-5.16
2017-02-14T07:30:20.800Z,-5.2
2017-02-14T07:31:31.496Z,-5.17
2017-02-14T07:32:42.203Z,-5.16
2017-02-14T07:33:52.913Z,-5.19
2017-02-14T07:35:03.201Z,-5.12
2017-02-14T07:36:13.124Z,-5.16
2017-02-14T07:37:23.819Z,-5.12
2017-02-14T07:38:34.518Z,-5.09
2017-02-14T07:39:45.223Z,-5.13
2017-02-14T07:40:55.919Z,-5.1
2017-02-14T07:42:06.625Z,-5.02
2017-02-14T07:43:16.916Z,-5
2017-02-14T07:44:27.612Z,-5.06
2017-02-14T07:45:38.332Z,-4.94
2017-02-14T07:46:48.634Z,-4.84
2017-02-14T07:47:59.333Z,-4.73
2017-02-14T07:49:10.019Z,-4.55
2017-02-14T07:50:20.712Z,-4.51
2017-02-14T07:51:31.452Z,-4.42
2017-02-14T07:52:42.201Z,-4.24
2017-02-14T07:53:52.908Z,-4.2
2017-02-14T07:55:03.260Z,-4.2
2017-02-14T07:56:13.551Z,-4.19
2017-02-14T07:57:23.852Z,-4.14
2017-02-14T07:58:34.558Z,-4.04
2017-02-14T07:59:45.253Z,-4.05
2017-02-14T08:00:55.948Z,-4.02
2017-02-14T08:02:06.658Z,-4.05
2017-02-14T08:03:16.975Z,-4.05
2017-02-14T08:04:27.677Z,-4.05
2017-02-14T08:05:37.965Z,-3.98
2017-02-14T08:06:48.661Z,-3.91
2017-02-14T08:07:58.967Z,-4.04
2017-02-14T08:09:09.260Z,-3.95
2017-02-14T08:10:19.974Z,-3.9
2017-02-14T08:11:30.668Z,-3.84
2017-02-14T08:12:41.374Z,-3.94
2017-02-14T08:13:52.063Z,-3.75
2017-02-14T08:15:02.782Z,-3.8
2017-02-14T08:16:13.483Z,-3.66
2017-02-14T08:17:24.205Z,-3.68
2017-02-14T08:18:34.913Z,-3.69
2017-02-14T08:19:45.211Z,-3.69
2017-02-14T08:20:55.924Z,-3.64
2017-02-14T08:22:06.633Z,-3.69
2017-02-14T08:23:16.949Z,-3.68
2017-02-14T08:24:27.656Z,-3.81
2017-02-14T08:25:38.351Z,-3.81
2017-02-14T08:26:49.048Z,-3.88
2017-02-14T08:27:59.755Z,-3.9
2017-02-14T08:29:10.475Z,-3.9
2017-02-14T08:30:21.198Z,-3.95
2017-02-14T08:31:31.933Z,-3.88
2017-02-14T08:32:42.642Z,-3.98
2017-02-14T08:33:53.329Z,-3.88
2017-02-14T08:35:04.044Z,-3.91
2017-02-14T08:36:14.754Z,-3.95
2017-02-14T08:37:25.845Z,-3.87
2017-02-14T08:38:36.545Z,-3.88
2017-02-14T08:39:46.856Z,-3.95
2017-02-14T08:40:57.547Z,-3.88
2017-02-14T08:42:08.247Z,-3.81
2017-02-14T08:43:18.553Z,-3.71
2017-02-14T08:44:29.260Z,-3.68
2017-02-14T08:45:39.952Z,-3.75
2017-02-14T08:46:50.644Z,-3.69
2017-02-14T08:48:00.959Z,-3.62
2017-02-14T08:49:11.267Z,-3.53
2017-02-14T08:50:21.965Z,-3.48
2017-02-14T08:51:32.675Z,-3.51
2017-02-14T08:52:43.379Z,-3.48
2017-02-14T08:53:54.114Z,-3.43
2017-02-14T08:55:04.820Z,-3.32
2017-02-14T08:56:15.520Z,-3.38
2017-02-14T08:57:26.217Z,-3.33
2017-02-14T08:58:36.927Z,-3.26
2017-02-14T08:59:47.276Z,-3.26
2017-02-14T09:00:57.568Z,-3.27
2017-02-14T09:02:08.257Z,-3.23
2017-02-14T09:03:18.970Z,-3.09
2017-02-14T09:04:29.683Z,-3.09
2017-02-14T09:05:40.386Z,-3.08
2017-02-14T09:06:51.095Z,-3.08
2017-02-14T09:08:01.778Z,-3.23
2017-02-14T09:09:12.469Z,-3.3
2017-02-14T09:10:22.782Z,-3.38
2017-02-14T09:11:33.477Z,-3.36
2017-02-14T09:12:44.164Z,-3.48
2017-02-14T09:13:54.883Z,-3.61
2017-02-14T09:15:05.182Z,-3.71
2017-02-14T09:16:15.895Z,-3.71
2017-02-14T09:17:26.602Z,-3.84
2017-02-14T09:18:37.321Z,-3.85
2017-02-14T09:19:48.047Z,-3.9
2017-02-14T09:20:58.748Z,-3.95
2017-02-14T09:22:09.475Z,-3.94
2017-02-14T09:23:20.198Z,-3.84
2017-02-14T09:24:30.902Z,-3.9
2017-02-14T09:25:41.595Z,-3.87
2017-02-14T09:26:52.291Z,-3.78
2017-02-14T09:28:02.997Z,-3.77
2017-02-14T09:29:13.298Z,-3.75
2017-02-14T09:30:23.600Z,-3.8
2017-02-14T09:31:34.307Z,-3.74
2017-02-14T09:32:44.996Z,-3.58
2017-02-14T09:33:55.319Z,-3.55
2017-02-14T09:35:06.025Z,-3.44
2017-02-14T09:36:16.325Z,-3.47
2017-02-14T09:37:26.640Z,-3.23
2017-02-14T09:38:36.930Z,-3.05
2017-02-14T09:39:47.640Z,-3.07
2017-02-14T09:40:58.339Z,-2.99
2017-02-14T09:42:09.058Z,-2.9
2017-02-14T09:43:19.769Z,-2.76
2017-02-14T09:44:30.492Z,-2.72
2017-02-14T09:45:40.433Z,-2.62
2017-02-14T09:46:51.127Z,-2.55
2017-02-14T09:48:01.836Z,-2.44
2017-02-14T09:49:12.538Z,-2.4
2017-02-14T09:50:22.851Z,-2.29
2017-02-14T09:51:33.565Z,-2.34
2017-02-14T09:52:43.880Z,-2.28
2017-02-14T09:53:54.574Z,-2.22
2017-02-14T09:55:05.299Z,-2.23
2017-02-14T09:56:15.604Z,-2.14
2017-02-14T09:57:26.299Z,-2.14
2017-02-14T09:58:36.997Z,-2.1
2017-02-14T09:59:47.713Z,-2.02
2017-02-14T10:00:58.439Z,-1.96
2017-02-14T10:02:09.133Z,-1.89
2017-02-14T10:03:19.820Z,-1.72
2017-02-14T10:04:30.518Z,-1.64
2017-02-14T10:05:40.818Z,-1.63
2017-02-14T10:06:51.548Z,-1.58
2017-02-14T10:08:02.252Z,-1.43
2017-02-14T10:09:12.959Z,-1.48
2017-02-14T10:10:23.261Z,-1.45
2017-02-14T10:11:33.968Z,-1.38
2017-02-14T10:12:44.696Z,-1.29
2017-02-14T10:13:55.388Z,-1.29
2017-02-14T10:15:05.746Z,-1.3
2017-02-14T10:16:15.641Z,-1.22
2017-02-14T10:17:26.342Z,-1.19
2017-02-14T10:18:37.043Z,-1.09
2017-02-14T10:19:47.748Z,-1.11
2017-02-14T10:20:58.458Z,-1.06
2017-02-14T10:22:09.167Z,-1.04
2017-02-14T10:23:19.870Z,-0.97
2017-02-14T10:24:30.576Z,-0.93
2017-02-14T10:25:41.271Z,-0.93
2017-02-14T10:26:51.202Z,-0.72
2017-02-14T10:28:01.899Z,-0.97
2017-02-14T10:29:12.210Z,-1.22
2017-02-14T10:30:22.523Z,-1.4
2017-02-14T10:31:32.828Z,-1.5
2017-02-14T10:32:43.136Z,-1.68
2017-02-14T10:33:53.841Z,-1.76
2017-02-14T10:35:04.594Z,-1.76
2017-02-14T10:36:15.306Z,-1.89
2017-02-14T10:37:26.040Z,-1.96
2017-02-14T10:38:36.376Z,-1.86
2017-02-14T10:39:46.692Z,-1.79
2017-02-14T10:40:57.007Z,-1.76
2017-02-14T10:42:07.314Z,-1.75
2017-02-14T10:43:17.630Z,-1.75
2017-02-14T10:44:28.325Z,-1.71
2017-02-14T10:45:39.043Z,-1.66
2017-02-14T10:46:49.762Z,-1.48
2017-02-14T10:48:00.462Z,-1.53
2017-02-14T10:49:11.167Z,-1.4
2017-02-14T10:50:21.896Z,-1.29
2017-02-14T10:51:31.808Z,-1.21
2017-02-14T10:52:41.720Z,-1.15
2017-02-14T10:53:52.430Z,-1.01
2017-02-14T10:55:02.746Z,-0.93
2017-02-14T10:56:12.664Z,-0.77
2017-02-14T10:57:23.378Z,-0.57
2017-02-14T10:58:34.078Z,-0.57
2017-02-14T10:59:44.431Z,-0.46
2017-02-14T11:00:55.134Z,-0.39
2017-02-14T11:02:05.853Z,-0.17
2017-02-14T11:03:16.184Z,0.08
2017-02-14T11:04:26.893Z,0.33
2017-02-14T11:05:37.595Z,0.77
2017-02-14T11:06:48.293Z,1.2
2017-02-14T11:07:58.992Z,1.66
2017-02-14T11:09:09.306Z,1.98
2017-02-14T11:10:20.022Z,2.39
2017-02-14T11:11:30.741Z,2.77
2017-02-14T11:12:41.441Z,3.15
2017-02-14T11:13:52.149Z,3.63
2017-02-14T11:15:02.883Z,3.91
2017-02-14T11:16:13.198Z,4.24
2017-02-14T11:17:23.918Z,4.53
2017-02-14T11:18:34.656Z,4.76
2017-02-14T11:19:44.957Z,4.95
2017-02-14T11:20:55.727Z,5.1
2017-02-14T11:22:06.447Z,5.29
2017-02-14T11:23:16.790Z,5.55
2017-02-14T11:24:27.525Z,5.77
2017-02-14T11:25:38.250Z,5.94
2017-02-14T11:26:48.950Z,6.15
2017-02-14T11:27:59.666Z,6.38
2017-02-14T11:29:10.377Z,6.59
2017-02-14T11:30:20.691Z,6.64
2017-02-14T11:31:31.413Z,6.86
2017-02-14T11:32:42.142Z,7.05
2017-02-14T11:33:52.444Z,7.18
2017-02-14T11:35:03.175Z,7.33
2017-02-14T11:36:13.489Z,7.48
2017-02-14T11:37:24.210Z,7.75
2017-02-14T11:38:34.940Z,7.83
2017-02-14T11:39:45.655Z,8.02
2017-02-14T11:40:56.371Z,8.24
2017-02-14T11:42:07.096Z,8.5
2017-02-14T11:43:17.822Z,8.68
2017-02-14T11:44:28.529Z,8.79
2017-02-14T11:45:38.847Z,8.97
2017-02-14T11:46:49.578Z,9.16
2017-02-14T11:48:00.303Z,9.34
2017-02-14T11:49:11.021Z,9.52
2017-02-14T11:50:21.797Z,9.72
2017-02-14T11:51:32.512Z,9.81
2017-02-14T11:52:43.238Z,10.02
2017-02-14T11:53:53.552Z,10.13
2017-02-14T11:55:03.877Z,10.34
2017-02-14T11:56:14.612Z,10.55
2017-02-14T11:57:25.315Z,10.61
2017-02-14T11:58:36.021Z,10.83
2017-02-14T11:59:46.739Z,10.94
2017-02-14T12:00:57.043Z,11.1
2017-02-14T12:02:07.365Z,11.25
2017-02-14T12:03:18.094Z,11.38
2017-02-14T12:04:28.815Z,11.48
2017-02-14T12:05:39.528Z,11.56
2017-02-14T12:06:49.851Z,11.62
2017-02-14T12:08:00.200Z,11.86
2017-02-14T12:09:10.532Z,11.73
2017-02-14T12:10:21.261Z,12.11
2017-02-14T12:11:31.995Z,12.26
2017-02-14T12:12:42.341Z,12.47
2017-02-14T12:13:53.064Z,12.54
2017-02-14T12:15:03.384Z,12.51
2017-02-14T12:16:13.715Z,12.48
2017-02-14T12:17:24.470Z,12.47
2017-02-14T12:18:35.183Z,12.62
2017-02-14T12:19:44.730Z,12.33
2017-02-14T12:20:55.452Z,12.39
2017-02-14T12:22:06.199Z,12.39
2017-02-14T12:23:16.926Z,12.36
2017-02-14T12:24:27.642Z,12.43
2017-02-14T12:25:38.347Z,12.4
2017-02-14T12:26:49.073Z,12.57
2017-02-14T12:27:59.034Z,12.66
2017-02-14T12:29:08.963Z,12.7
2017-02-14T12:30:19.277Z,12.8
2017-02-14T12:31:30.001Z,12.8
2017-02-14T12:32:40.707Z,12.75
2017-02-14T12:33:51.427Z,12.95
2017-02-14T12:35:01.754Z,13.01
2017-02-14T12:36:12.479Z,13.11
2017-02-14T12:37:23.203Z,13.33
2017-02-14T12:38:33.523Z,13.47
2017-02-14T12:39:44.235Z,13.67
2017-02-14T12:40:54.963Z,13.86
2017-02-14T12:42:05.673Z,14
2017-02-14T12:43:15.593Z,14.05
2017-02-14T12:44:26.322Z,14.05
2017-02-14T12:45:37.043Z,14.16
2017-02-14T12:46:47.780Z,14.4
2017-02-14T12:47:58.513Z,14.48
2017-02-14T12:49:09.251Z,14.73
2017-02-14T12:50:19.965Z,14.97
2017-02-14T12:51:30.709Z,14.51
2017-02-14T12:52:41.433Z,13.8
2017-02-14T12:53:52.178Z,13.52
2017-02-14T12:55:02.889Z,13.27
2017-02-14T12:56:13.614Z,13.28
2017-02-14T12:57:24.348Z,13.4
2017-02-14T12:58:35.068Z,13.27
2017-02-14T12:59:45.385Z,13.52
2017-02-14T13:00:56.111Z,13.94
2017-02-14T13:02:06.836Z,14.4
2017-02-14T13:03:17.587Z,14.81
2017-02-14T13:04:28.316Z,15.05
2017-02-14T13:05:38.655Z,15.27
2017-02-14T13:06:49.393Z,15.57
2017-02-14T13:08:00.117Z,15.66
2017-02-14T13:09:10.842Z,15.6
2017-02-14T13:10:21.557Z,15.3
2017-02-14T13:11:32.281Z,15.14
2017-02-14T13:12:42.994Z,14.73
2017-02-14T13:13:53.344Z,14.34
2017-02-14T13:15:04.080Z,13.64
2017-02-14T13:16:14.825Z,12.99
2017-02-14T13:17:25.546Z,12.28
2017-02-14T13:18:36.281Z,11.63
2017-02-14T13:19:46.239Z,11.43
2017-02-14T13:20:56.949Z,10.86
2017-02-14T13:22:07.687Z,10.71
2017-02-14T13:23:18.021Z,10.71
2017-02-14T13:24:28.733Z,10.61
2017-02-14T13:25:39.094Z,10.27
2017-02-14T13:26:49.439Z,9.87
2017-02-14T13:28:00.167Z,9.58
2017-02-14T13:29:10.887Z,9.15
2017-02-14T13:30:21.616Z,8.75
2017-02-14T13:31:32.345Z,8.52
2017-02-14T13:32:43.056Z,8.23
2017-02-14T13:33:53.382Z,8.03
2017-02-14T13:35:04.111Z,7.85
2017-02-14T13:36:14.447Z,7.46
2017-02-14T13:37:25.173Z,7.18
2017-02-14T13:38:35.908Z,7.05
2017-02-14T13:39:46.240Z,6.8
2017-02-14T13:40:56.992Z,6.57
2017-02-14T13:42:07.300Z,6.46
2017-02-14T13:43:17.618Z,6.38
2017-02-14T13:44:28.341Z,6.1
2017-02-14T13:45:38.664Z,5.79
2017-02-14T13:46:49.396Z,5.31
2017-02-14T13:48:00.111Z,4.97
2017-02-14T13:49:10.430Z,4.74
2017-02-14T13:50:20.757Z,4.5
2017-02-14T13:51:31.473Z,4.24
2017-02-14T13:52:41.791Z,3.91
2017-02-14T13:53:52.136Z,3.7
2017-02-14T13:55:02.857Z,3.48
2017-02-14T13:56:13.582Z,3.22
2017-02-14T13:57:24.296Z,3.09
2017-02-14T13:58:35.019Z,2.91
2017-02-14T13:59:45.354Z,2.93
2017-02-14T14:00:56.078Z,2.64
2017-02-14T14:02:06.798Z,2.65
2017-02-14T14:03:17.126Z,2.58
2017-02-14T14:04:27.865Z,2.68
2017-02-14T14:05:38.595Z,2.8
2017-02-14T14:06:48.916Z,2.88
2017-02-14T14:07:59.631Z,3
2017-02-14T14:09:10.334Z,3.26
2017-02-14T14:10:21.047Z,3.15
2017-02-14T14:11:31.801Z,3.15
2017-02-14T14:12:42.518Z,3.33
2017-02-14T14:13:52.864Z,3.74
2017-02-14T14:15:03.193Z,3.95
2017-02-14T14:16:13.907Z,4.1
2017-02-14T14:17:24.633Z,4.22
2017-02-14T14:18:35.333Z,4.36
2017-02-14T14:19:46.049Z,4.34
2017-02-14T14:20:56.770Z,4.21
2017-02-14T14:22:07.088Z,4.1
2017-02-14T14:23:17.855Z,3.94
2017-02-14T14:24:28.591Z,3.77
2017-02-14T14:25:39.302Z,3.55
2017-02-14T14:26:50.010Z,3.45
2017-02-14T14:28:00.727Z,3.24
2017-02-14T14:29:10.663Z,3.11
2017-02-14T14:30:21.383Z,3.06
2017-02-14T14:31:32.094Z,2.98
2017-02-14T14:32:42.405Z,2.76
2017-02-14T14:33:53.100Z,2.69
2017-02-14T14:35:03.822Z,2.54
2017-02-14T14:36:14.144Z,2.55
2017-02-14T14:37:24.469Z,2.41
2017-02-14T14:38:35.192Z,2.19
2017-02-14T14:39:45.498Z,2.1
2017-02-14T14:40:55.823Z,2.08
2017-02-14T14:42:06.549Z,1.92
2017-02-14T14:43:16.858Z,1.78
2017-02-14T14:44:27.572Z,1.68
2017-02-14T14:45:38.279Z,1.53
2017-02-14T14:46:48.985Z,1.45
2017-02-14T14:47:59.308Z,1.39
2017-02-14T14:49:10.012Z,1.32
2017-02-14T14:50:20.759Z,1.16
2017-02-14T14:51:31.463Z,1.07
2017-02-14T14:52:42.185Z,1.07
2017-02-14T14:53:52.931Z,1.07
2017-02-14T14:55:03.239Z,1.1
2017-02-14T14:56:13.952Z,1.04
2017-02-14T14:57:24.679Z,0.92
2017-02-14T14:58:35.389Z,0.89
2017-02-14T14:59:46.103Z,0.89
2017-02-14T15:00:56.812Z,0.88
2017-02-14T15:02:07.539Z,0.82
2017-02-14T15:03:17.857Z,0.76
2017-02-14T15:04:28.763Z,0.74
2017-02-14T15:05:40.454Z,0.71
2017-02-14T15:06:51.164Z,0.58
2017-02-14T15:08:01.512Z,0.64
2017-02-14T15:09:12.224Z,0.61
2017-02-14T15:10:22.938Z,0.47
2017-02-14T15:11:33.668Z,0.39
2017-02-14T15:12:44.404Z,0.44
2017-02-14T15:13:55.106Z,0.34
2017-02-14T15:15:05.447Z,0.36
2017-02-14T15:16:15.782Z,0.33
2017-02-14T15:17:26.492Z,0.33
2017-02-14T15:18:37.230Z,0.3